sensor_id;sensor_type;location;lat;lon;timestamp;pressure;altitude;pressure_sealevel;temperature;humidity
73651;BME280;61944;52.538;6.108;2023-01-04T00:00:03;101699.84;;;7.89;100.00
73651;BME280;61944;52.538;6.108;2023-01-04T00:02:28;101684.63;;;7.87;100.00
73651;BME280;61944;52.538;6.108;2023-01-04T00:04:53;101692.63;;;7.88;100.00
73651;BME280;61944;52.538;6.108;2023-01-04T00:07:19;101686.72;;;7.90;100.00
73651;BME280;61944;52.538;6.108;2023-01-04T00:09:44;101677.56;;;7.89;100.00
73651;BME280;61944;52.538;6.108;2023-01-04T00:12:09;101683.13;;;7.89;100.00
73651;BME280;61944;52.538;6.108;2023-01-04T00:14:35;101654.94;;;7.70;100.00
73651;BME280;61944;52.538;6.108;2023-01-04T00:17:00;101659.19;;;7.88;100.00
73651;BME280;61944;52.538;6.108;2023-01-04T00:19:26;101652.69;;;7.84;100.00
73651;BME280;61944;52.538;6.108;2023-01-04T00:21:51;101648.13;;;7.80;100.00
73651;BME280;61944;52.538;6.108;2023-01-04T00:24:17;101631.13;;;7.72;100.00
73651;BME280;61944;52.538;6.108;2023-01-04T00:26:43;101639.16;;;7.74;100.00
73651;BME280;61944;52.538;6.108;2023-01-04T00:29:10;101611.22;;;7.62;100.00
73651;BME280;61944;52.538;6.108;2023-01-04T00:31:36;101619.66;;;7.74;100.00
73651;BME280;61944;52.538;6.108;2023-01-04T00:34:03;101630.97;;;7.69;100.00
73651;BME280;61944;52.538;6.108;2023-01-04T00:36:28;101613.13;;;7.70;100.00
73651;BME280;61944;52.538;6.108;2023-01-04T00:38:54;101620.31;;;7.71;100.00
73651;BME280;61944;52.538;6.108;2023-01-04T00:41:34;101619.84;;;7.69;100.00
73651;BME280;61944;52.538;6.108;2023-01-04T00:43:59;101599.84;;;7.67;100.00
73651;BME280;61944;52.538;6.108;2023-01-04T00:46:27;101585.59;;;7.68;100.00
73651;BME280;61944;52.538;6.108;2023-01-04T00:48:53;101575.00;;;7.62;100.00
73651;BME280;61944;52.538;6.108;2023-01-04T00:51:18;101565.34;;;7.59;100.00
73651;BME280;61944;52.538;6.108;2023-01-04T00:53:43;101580.72;;;7.65;100.00
73651;BME280;61944;52.538;6.108;2023-01-04T00:56:09;101565.56;;;7.54;100.00
73651;BME280;61944;52.538;6.108;2023-01-04T00:58:34;101558.47;;;7.57;100.00
73651;BME280;61944;52.538;6.108;2023-01-04T01:01:06;101553.13;;;7.51;100.00
73651;BME280;61944;52.538;6.108;2023-01-04T01:03:33;101522.34;;;7.48;100.00
73651;BME280;61944;52.538;6.108;2023-01-04T01:06:05;101541.75;;;7.57;100.00
73651;BME280;61944;52.538;6.108;2023-01-04T01:08:31;101537.06;;;7.69;100.00
73651;BME280;61944;52.538;6.108;2023-01-04T01:11:03;101538.38;;;7.72;100.00
73651;BME280;61944;52.538;6.108;2023-01-04T01:13:29;101518.00;;;7.59;100.00
73651;BME280;61944;52.538;6.108;2023-01-04T01:15:55;101501.38;;;7.63;100.00
73651;BME280;61944;52.538;6.108;2023-01-04T01:18:20;101491.09;;;7.63;100.00
73651;BME280;61944;52.538;6.108;2023-01-04T01:20:46;101496.25;;;7.52;100.00
73651;BME280;61944;52.538;6.108;2023-01-04T01:23:14;101499.50;;;7.54;100.00
73651;BME280;61944;52.538;6.108;2023-01-04T01:25:40;101498.75;;;7.66;100.00
73651;BME280;61944;52.538;6.108;2023-01-04T01:28:07;101469.31;;;7.57;100.00
73651;BME280;61944;52.538;6.108;2023-01-04T01:30:32;101481.22;;;7.66;100.00
73651;BME280;61944;52.538;6.108;2023-01-04T01:32:58;101472.84;;;7.66;100.00
73651;BME280;61944;52.538;6.108;2023-01-04T01:35:23;101466.59;;;7.69;100.00
73651;BME280;61944;52.538;6.108;2023-01-04T01:37:49;101458.69;;;7.71;100.00
73651;BME280;61944;52.538;6.108;2023-01-04T01:40:14;101444.28;;;7.69;100.00
73651;BME280;61944;52.538;6.108;2023-01-04T01:42:39;101469.84;;;7.71;100.00
73651;BME280;61944;52.538;6.108;2023-01-04T01:45:08;101463.59;;;7.74;100.00
73651;BME280;61944;52.538;6.108;2023-01-04T01:47:48;101419.56;;;7.80;100.00
73651;BME280;61944;52.538;6.108;2023-01-04T01:50:23;101433.84;;;7.66;100.00
73651;BME280;61944;52.538;6.108;2023-01-04T01:52:51;101431.28;;;7.73;100.00
73651;BME280;61944;52.538;6.108;2023-01-04T01:55:18;101446.31;;;7.81;100.00
73651;BME280;61944;52.538;6.108;2023-01-04T01:57:46;101427.47;;;7.78;100.00
73651;BME280;61944;52.538;6.108;2023-01-04T02:00:14;101414.38;;;7.78;100.00
73651;BME280;61944;52.538;6.108;2023-01-04T02:02:47;101420.06;;;7.82;100.00
73651;BME280;61944;52.538;6.108;2023-01-04T02:05:13;101412.59;;;7.73;100.00
73651;BME280;61944;52.538;6.108;2023-01-04T02:07:39;101425.03;;;7.88;100.00
73651;BME280;61944;52.538;6.108;2023-01-04T02:10:05;101436.19;;;7.88;100.00
73651;BME280;61944;52.538;6.108;2023-01-04T02:12:31;101415.19;;;7.91;100.00
73651;BME280;61944;52.538;6.108;2023-01-04T02:14:56;101412.75;;;7.89;100.00
73651;BME280;61944;52.538;6.108;2023-01-04T02:17:45;101403.00;;;7.96;100.00
73651;BME280;61944;52.538;6.108;2023-01-04T02:20:28;101403.47;;;7.98;100.00
73651;BME280;61944;52.538;6.108;2023-01-04T02:23:04;101403.00;;;7.96;100.00
73651;BME280;61944;52.538;6.108;2023-01-04T02:25:43;101403.34;;;8.06;100.00
73651;BME280;61944;52.538;6.108;2023-01-04T02:28:35;101382.56;;;8.04;100.00
73651;BME280;61944;52.538;6.108;2023-01-04T02:31:32;101392.09;;;8.15;100.00
73651;BME280;61944;52.538;6.108;2023-01-04T02:34:12;101386.28;;;8.20;100.00
73651;BME280;61944;52.538;6.108;2023-01-04T02:42:05;101353.75;;;8.24;100.00
73651;BME280;61944;52.538;6.108;2023-01-04T02:44:44;101366.97;;;8.40;100.00
73651;BME280;61944;52.538;6.108;2023-01-04T02:50:23;101351.03;;;8.40;100.00
73651;BME280;61944;52.538;6.108;2023-01-04T02:53:11;101345.81;;;8.51;100.00
73651;BME280;61944;52.538;6.108;2023-01-04T03:01:42;101311.19;;;8.40;100.00
73651;BME280;61944;52.538;6.108;2023-01-04T03:05:04;101331.63;;;8.56;100.00
73651;BME280;61944;52.538;6.108;2023-01-04T03:08:01;101333.44;;;8.64;100.00
73651;BME280;61944;52.538;6.108;2023-01-04T03:13:17;101326.25;;;8.63;100.00
73651;BME280;61944;52.538;6.108;2023-01-04T03:15:51;101308.28;;;8.48;100.00
73651;BME280;61944;52.538;6.108;2023-01-04T03:18:24;101329.50;;;8.65;100.00
73651;BME280;61944;52.538;6.108;2023-01-04T03:20:52;101299.56;;;8.50;100.00
73651;BME280;61944;52.538;6.108;2023-01-04T03:23:23;101297.22;;;8.52;100.00
73651;BME280;61944;52.538;6.108;2023-01-04T03:26:27;101320.06;;;8.70;100.00
73651;BME280;61944;52.538;6.108;2023-01-04T03:29:17;101320.41;;;8.68;100.00
73651;BME280;61944;52.538;6.108;2023-01-04T03:32:07;101318.53;;;8.72;100.00
73651;BME280;61944;52.538;6.108;2023-01-04T03:34:54;101317.84;;;8.75;100.00
73651;BME280;61944;52.538;6.108;2023-01-04T03:37:49;101314.38;;;8.66;100.00
73651;BME280;61944;52.538;6.108;2023-01-04T03:40:40;101316.59;;;8.73;100.00
73651;BME280;61944;52.538;6.108;2023-01-04T03:43:32;101317.63;;;8.68;100.00
73651;BME280;61944;52.538;6.108;2023-01-04T03:49:10;101314.91;;;8.84;100.00
73651;BME280;61944;52.538;6.108;2023-01-04T03:51:38;101301.09;;;8.75;100.00
73651;BME280;61944;52.538;6.108;2023-01-04T03:54:23;101306.63;;;8.88;100.00
73651;BME280;61944;52.538;6.108;2023-01-04T03:56:51;101307.31;;;8.85;100.00
73651;BME280;61944;52.538;6.108;2023-01-04T03:59:18;101306.53;;;8.84;100.00
73651;BME280;61944;52.538;6.108;2023-01-04T04:01:47;101321.69;;;8.99;100.00
73651;BME280;61944;52.538;6.108;2023-01-04T04:04:12;101313.19;;;8.80;100.00
73651;BME280;61944;52.538;6.108;2023-01-04T04:06:56;101309.00;;;9.02;100.00
73651;BME280;61944;52.538;6.108;2023-01-04T04:09:40;101308.66;;;9.03;100.00
73651;BME280;61944;52.538;6.108;2023-01-04T04:12:06;101305.41;;;9.01;100.00
73651;BME280;61944;52.538;6.108;2023-01-04T04:14:31;101293.78;;;8.99;100.00
73651;BME280;61944;52.538;6.108;2023-01-04T04:16:56;101291.88;;;9.03;100.00
73651;BME280;61944;52.538;6.108;2023-01-04T04:19:22;101283.84;;;9.02;100.00
73651;BME280;61944;52.538;6.108;2023-01-04T04:21:47;101266.75;;;9.03;100.00
73651;BME280;61944;52.538;6.108;2023-01-04T04:24:19;101281.78;;;8.99;100.00
73651;BME280;61944;52.538;6.108;2023-01-04T04:26:44;101261.44;;;8.98;100.00
73651;BME280;61944;52.538;6.108;2023-01-04T04:29:10;101257.75;;;8.94;100.00
73651;BME280;61944;52.538;6.108;2023-01-04T04:31:35;101252.44;;;9.05;100.00
73651;BME280;61944;52.538;6.108;2023-01-04T04:34:01;101263.69;;;9.08;100.00
73651;BME280;61944;52.538;6.108;2023-01-04T04:36:27;101250.81;;;9.04;100.00
73651;BME280;61944;52.538;6.108;2023-01-04T04:38:52;101263.53;;;9.17;100.00
73651;BME280;61944;52.538;6.108;2023-01-04T04:41:17;101248.94;;;9.24;100.00
73651;BME280;61944;52.538;6.108;2023-01-04T04:44:01;101248.50;;;9.22;100.00
73651;BME280;61944;52.538;6.108;2023-01-04T04:46:27;101248.50;;;9.22;100.00
73651;BME280;61944;52.538;6.108;2023-01-04T04:48:52;101249.84;;;9.28;100.00
73651;BME280;61944;52.538;6.108;2023-01-04T04:51:17;101237.16;;;9.30;100.00
73651;BME280;61944;52.538;6.108;2023-01-04T04:53:43;101221.19;;;9.31;100.00
73651;BME280;61944;52.538;6.108;2023-01-04T04:56:09;101215.25;;;9.32;100.00
73651;BME280;61944;52.538;6.108;2023-01-04T04:58:35;101222.63;;;9.25;100.00
73651;BME280;61944;52.538;6.108;2023-01-04T05:01:00;101224.59;;;9.40;100.00
73651;BME280;61944;52.538;6.108;2023-01-04T05:03:25;101213.50;;;9.44;100.00
73651;BME280;61944;52.538;6.108;2023-01-04T05:05:51;101222.69;;;9.44;100.00
73651;BME280;61944;52.538;6.108;2023-01-04T05:08:16;101192.59;;;9.38;100.00
73651;BME280;61944;52.538;6.108;2023-01-04T05:10:42;101221.69;;;9.52;100.00
73651;BME280;61944;52.538;6.108;2023-01-04T05:13:09;101224.03;;;9.66;100.00
73651;BME280;61944;52.538;6.108;2023-01-04T05:15:39;101228.19;;;9.72;100.00
73651;BME280;61944;52.538;6.108;2023-01-04T05:18:05;101223.69;;;9.68;100.00
73651;BME280;61944;52.538;6.108;2023-01-04T05:20:31;101200.59;;;9.71;100.00
73651;BME280;61944;52.538;6.108;2023-01-04T05:22:56;101207.06;;;9.75;100.00
73651;BME280;61944;52.538;6.108;2023-01-04T05:25:22;101200.28;;;9.76;100.00
73651;BME280;61944;52.538;6.108;2023-01-04T05:27:47;101208.66;;;9.76;100.00
73651;BME280;61944;52.538;6.108;2023-01-04T05:30:14;101196.63;;;9.72;100.00
73651;BME280;61944;52.538;6.108;2023-01-04T05:32:59;101194.88;;;9.83;100.00
73651;BME280;61944;52.538;6.108;2023-01-04T05:35:24;101200.16;;;9.88;100.00
73651;BME280;61944;52.538;6.108;2023-01-04T05:37:50;101184.28;;;9.92;100.00
73651;BME280;61944;52.538;6.108;2023-01-04T05:40:15;101172.19;;;9.69;100.00
73651;BME280;61944;52.538;6.108;2023-01-04T05:42:41;101185.91;;;9.93;100.00
73651;BME280;61944;52.538;6.108;2023-01-04T05:45:06;101167.38;;;9.85;100.00
73651;BME280;61944;52.538;6.108;2023-01-04T05:47:32;101171.50;;;9.91;100.00
73651;BME280;61944;52.538;6.108;2023-01-04T05:49:57;101177.81;;;9.88;100.00
73651;BME280;61944;52.538;6.108;2023-01-04T05:52:23;101172.59;;;9.87;100.00
73651;BME280;61944;52.538;6.108;2023-01-04T05:54:48;101138.97;;;9.83;100.00
73651;BME280;61944;52.538;6.108;2023-01-04T05:57:14;101151.56;;;9.93;100.00
73651;BME280;61944;52.538;6.108;2023-01-04T05:59:40;101135.72;;;9.81;100.00
73651;BME280;61944;52.538;6.108;2023-01-04T06:02:06;101137.25;;;9.79;100.00
73651;BME280;61944;52.538;6.108;2023-01-04T06:04:31;101128.94;;;9.82;100.00
73651;BME280;61944;52.538;6.108;2023-01-04T06:06:56;101139.25;;;9.97;100.00
73651;BME280;61944;52.538;6.108;2023-01-04T06:09:22;101117.75;;;9.82;100.00
73651;BME280;61944;52.538;6.108;2023-01-04T06:11:49;101123.44;;;9.86;100.00
73651;BME280;61944;52.538;6.108;2023-01-04T06:14:14;101141.09;;;9.90;100.00
73651;BME280;61944;52.538;6.108;2023-01-04T06:16:40;101147.66;;;9.97;100.00
73651;BME280;61944;52.538;6.108;2023-01-04T06:19:05;101128.03;;;9.78;100.00
73651;BME280;61944;52.538;6.108;2023-01-04T06:21:30;101154.06;;;9.98;100.00
73651;BME280;61944;52.538;6.108;2023-01-04T06:23:56;101119.38;;;9.83;100.00
73651;BME280;61944;52.538;6.108;2023-01-04T06:26:21;101111.66;;;9.96;100.00
73651;BME280;61944;52.538;6.108;2023-01-04T06:28:47;101131.75;;;10.02;100.00
73651;BME280;61944;52.538;6.108;2023-01-04T06:31:12;101152.34;;;9.93;100.00
73651;BME280;61944;52.538;6.108;2023-01-04T06:33:38;101148.91;;;10.00;100.00
73651;BME280;61944;52.538;6.108;2023-01-04T06:36:04;101153.97;;;9.94;100.00
73651;BME280;61944;52.538;6.108;2023-01-04T06:38:31;101158.41;;;9.95;100.00
73651;BME280;61944;52.538;6.108;2023-01-04T06:40:56;101167.38;;;10.05;100.00
73651;BME280;61944;52.538;6.108;2023-01-04T06:43:22;101158.84;;;9.97;100.00
73651;BME280;61944;52.538;6.108;2023-01-04T06:45:47;101161.78;;;10.05;100.00
73651;BME280;61944;52.538;6.108;2023-01-04T06:48:13;101166.56;;;10.04;100.00
73651;BME280;61944;52.538;6.108;2023-01-04T06:50:38;101177.97;;;9.95;100.00
73651;BME280;61944;52.538;6.108;2023-01-04T06:53:03;101176.56;;;10.05;100.00
73651;BME280;61944;52.538;6.108;2023-01-04T06:55:29;101171.63;;;9.98;100.00
73651;BME280;61944;52.538;6.108;2023-01-04T06:57:55;101160.53;;;10.02;100.00
73651;BME280;61944;52.538;6.108;2023-01-04T07:00:20;101160.97;;;10.63;100.00
73651;BME280;61944;52.538;6.108;2023-01-04T07:02:46;101153.00;;;10.65;100.00
73651;BME280;61944;52.538;6.108;2023-01-04T07:05:11;101154.88;;;10.37;100.00
73651;BME280;61944;52.538;6.108;2023-01-04T07:07:37;101161.06;;;10.27;100.00
73651;BME280;61944;52.538;6.108;2023-01-04T07:10:02;101143.75;;;10.22;100.00
73651;BME280;61944;52.538;6.108;2023-01-04T07:12:28;101139.38;;;10.24;100.00
73651;BME280;61944;52.538;6.108;2023-01-04T07:14:54;101150.88;;;10.19;100.00
73651;BME280;61944;52.538;6.108;2023-01-04T07:17:19;101145.75;;;10.21;100.00
73651;BME280;61944;52.538;6.108;2023-01-04T07:19:44;101131.31;;;10.19;100.00
73651;BME280;61944;52.538;6.108;2023-01-04T07:22:10;101124.16;;;10.22;100.00
73651;BME280;61944;52.538;6.108;2023-01-04T07:24:35;101117.00;;;10.24;100.00
73651;BME280;61944;52.538;6.108;2023-01-04T07:27:01;101120.25;;;10.26;100.00
73651;BME280;61944;52.538;6.108;2023-01-04T07:29:27;101111.59;;;10.31;100.00
73651;BME280;61944;52.538;6.108;2023-01-04T07:31:52;101122.78;;;10.31;100.00
73651;BME280;61944;52.538;6.108;2023-01-04T07:34:19;101120.34;;;10.30;100.00
73651;BME280;61944;52.538;6.108;2023-01-04T07:36:46;101109.16;;;10.30;100.00
73651;BME280;61944;52.538;6.108;2023-01-04T07:39:12;101113.13;;;10.29;100.00
73651;BME280;61944;52.538;6.108;2023-01-04T07:41:38;101094.38;;;10.29;100.00
73651;BME280;61944;52.538;6.108;2023-01-04T07:44:05;101095.63;;;10.32;100.00
73651;BME280;61944;52.538;6.108;2023-01-04T07:46:31;101111.28;;;10.36;100.00
73651;BME280;61944;52.538;6.108;2023-01-04T07:48:57;101102.75;;;10.29;100.00
73651;BME280;61944;52.538;6.108;2023-01-04T07:51:23;101104.88;;;10.36;100.00
73651;BME280;61944;52.538;6.108;2023-01-04T07:53:48;101101.22;;;10.32;100.00
73651;BME280;61944;52.538;6.108;2023-01-04T07:56:14;101094.13;;;10.38;100.00
73651;BME280;61944;52.538;6.108;2023-01-04T07:58:39;101108.41;;;10.33;100.00
73651;BME280;61944;52.538;6.108;2023-01-04T08:01:12;101090.03;;;10.32;100.00
73651;BME280;61944;52.538;6.108;2023-01-04T08:03:38;101090.91;;;10.36;100.00
73651;BME280;61944;52.538;6.108;2023-01-04T08:06:05;101086.19;;;10.40;100.00
73651;BME280;61944;52.538;6.108;2023-01-04T08:08:31;101087.88;;;10.25;100.00
73651;BME280;61944;52.538;6.108;2023-01-04T08:11:03;101095.44;;;10.44;100.00
73651;BME280;61944;52.538;6.108;2023-01-04T08:13:29;101092.13;;;10.38;100.00
73651;BME280;61944;52.538;6.108;2023-01-04T08:15:55;101085.38;;;10.40;100.00
73651;BME280;61944;52.538;6.108;2023-01-04T08:18:20;101086.19;;;10.40;100.00
73651;BME280;61944;52.538;6.108;2023-01-04T08:20:46;101097.44;;;10.44;100.00
73651;BME280;61944;52.538;6.108;2023-01-04T08:23:11;101095.00;;;10.42;100.00
73651;BME280;61944;52.538;6.108;2023-01-04T08:25:40;101087.78;;;10.41;100.00
73651;BME280;61944;52.538;6.108;2023-01-04T08:28:05;101109.81;;;10.43;100.00
73651;BME280;61944;52.538;6.108;2023-01-04T08:30:30;101091.88;;;10.47;100.00
73651;BME280;61944;52.538;6.108;2023-01-04T08:32:56;101096.25;;;10.45;100.00
73651;BME280;61944;52.538;6.108;2023-01-04T08:35:22;101083.94;;;10.49;100.00
73651;BME280;61944;52.538;6.108;2023-01-04T08:37:47;101075.94;;;10.48;100.00
73651;BME280;61944;52.538;6.108;2023-01-04T08:40:13;101088.72;;;10.49;100.00
73651;BME280;61944;52.538;6.108;2023-01-04T08:42:38;101079.56;;;10.52;100.00
73651;BME280;61944;52.538;6.108;2023-01-04T08:45:05;101072.25;;;10.44;100.00
73651;BME280;61944;52.538;6.108;2023-01-04T08:47:31;101084.81;;;10.53;100.00
73651;BME280;61944;52.538;6.108;2023-01-04T08:49:57;101079.03;;;10.43;100.00
73651;BME280;61944;52.538;6.108;2023-01-04T08:52:23;101064.59;;;10.41;100.00
73651;BME280;61944;52.538;6.108;2023-01-04T08:54:48;101086.44;;;10.54;100.00
73651;BME280;61944;52.538;6.108;2023-01-04T08:57:17;101063.88;;;10.44;100.00
73651;BME280;61944;52.538;6.108;2023-01-04T08:59:43;101080.34;;;10.49;100.00
73651;BME280;61944;52.538;6.108;2023-01-04T09:04:45;101095.09;;;10.46;100.00
73651;BME280;61944;52.538;6.108;2023-01-04T09:07:11;101092.41;;;10.53;100.00
73651;BME280;61944;52.538;6.108;2023-01-04T09:09:36;101099.16;;;10.52;100.00
73651;BME280;61944;52.538;6.108;2023-01-04T09:12:02;101086.69;;;10.46;100.00
73651;BME280;61944;52.538;6.108;2023-01-04T09:14:27;101091.09;;;10.47;100.00
73651;BME280;61944;52.538;6.108;2023-01-04T09:16:52;101100.88;;;10.56;100.00
73651;BME280;61944;52.538;6.108;2023-01-04T09:19:18;101098.00;;;10.53;100.00
73651;BME280;61944;52.538;6.108;2023-01-04T09:21:43;101104.84;;;10.55;100.00
73651;BME280;61944;52.538;6.108;2023-01-04T09:24:08;101102.47;;;10.57;100.00
73651;BME280;61944;52.538;6.108;2023-01-04T09:26:34;101100.88;;;10.56;100.00
73651;BME280;61944;52.538;6.108;2023-01-04T09:28:59;101092.06;;;10.58;100.00
73651;BME280;61944;52.538;6.108;2023-01-04T09:31:27;101109.31;;;10.60;100.00
73651;BME280;61944;52.538;6.108;2023-01-04T09:33:53;101103.72;;;10.60;100.00
73651;BME280;61944;52.538;6.108;2023-01-04T09:36:20;101118.59;;;10.64;100.00
73651;BME280;61944;52.538;6.108;2023-01-04T09:38:45;101100.00;;;10.52;100.00
73651;BME280;61944;52.538;6.108;2023-01-04T09:41:25;101126.63;;;10.66;100.00
73651;BME280;61944;52.538;6.108;2023-01-04T09:43:53;101119.03;;;10.66;100.00
73651;BME280;61944;52.538;6.108;2023-01-04T09:48:53;101127.84;;;10.68;100.00
73651;BME280;61944;52.538;6.108;2023-01-04T09:51:22;101108.16;;;10.61;100.00
73651;BME280;61944;52.538;6.108;2023-01-04T09:53:57;101117.91;;;10.71;100.00
73651;BME280;61944;52.538;6.108;2023-01-04T09:56:35;101132.28;;;10.69;100.00
73651;BME280;61944;52.538;6.108;2023-01-04T09:59:06;101127.06;;;10.68;100.00
73651;BME280;61944;52.538;6.108;2023-01-04T10:04:18;101138.75;;;10.73;100.00
73651;BME280;61944;52.538;6.108;2023-01-04T10:06:46;101130.72;;;10.72;100.00
73651;BME280;61944;52.538;6.108;2023-01-04T10:09:13;101124.31;;;10.71;100.00
73651;BME280;61944;52.538;6.108;2023-01-04T10:11:48;101127.50;;;10.70;100.00
73651;BME280;61944;52.538;6.108;2023-01-04T10:22:43;101122.00;;;10.77;100.00
73651;BME280;61944;52.538;6.108;2023-01-04T10:36:19;101119.78;;;10.86;100.00
73651;BME280;61944;52.538;6.108;2023-01-04T10:38:45;101114.00;;;10.75;100.00
73651;BME280;61944;52.538;6.108;2023-01-04T10:41:15;101110.97;;;10.88;100.00
73651;BME280;61944;52.538;6.108;2023-01-04T10:44:23;101097.84;;;10.92;100.00
73651;BME280;61944;52.538;6.108;2023-01-04T10:47:01;101102.28;;;10.93;100.00
73651;BME280;61944;52.538;6.108;2023-01-04T10:52:22;101098.72;;;10.96;100.00
73651;BME280;61944;52.538;6.108;2023-01-04T10:55:00;101083.91;;;10.95;100.00
73651;BME280;61944;52.538;6.108;2023-01-04T10:57:33;101089.22;;;11.01;100.00
73651;BME280;61944;52.538;6.108;2023-01-04T11:00:04;101083.53;;;10.97;100.00
73651;BME280;61944;52.538;6.108;2023-01-04T11:07:44;101069.78;;;11.11;100.00
73651;BME280;61944;52.538;6.108;2023-01-04T11:10:13;101077.03;;;11.16;100.00
73651;BME280;61944;52.538;6.108;2023-01-04T11:12:40;101070.28;;;11.21;100.00
73651;BME280;61944;52.538;6.108;2023-01-04T11:15:06;101057.84;;;11.18;100.00
73651;BME280;61944;52.538;6.108;2023-01-04T11:17:32;101067.50;;;11.21;100.00
73651;BME280;61944;52.538;6.108;2023-01-04T11:19:59;101064.31;;;11.22;100.00
73651;BME280;61944;52.538;6.108;2023-01-04T11:24:59;101042.63;;;11.15;100.00
73651;BME280;61944;52.538;6.108;2023-01-04T11:27:28;101041.00;;;11.14;100.00
73651;BME280;61944;52.538;6.108;2023-01-04T11:30:13;101074.81;;;11.29;100.00
73651;BME280;61944;52.538;6.108;2023-01-04T11:32:46;101032.78;;;11.29;100.00
73651;BME280;61944;52.538;6.108;2023-01-04T11:35:14;101053.63;;;11.31;100.00
73651;BME280;61944;52.538;6.108;2023-01-04T11:37:41;101036.50;;;11.36;100.00
73651;BME280;61944;52.538;6.108;2023-01-04T11:40:16;101047.75;;;11.40;100.00
73651;BME280;61944;52.538;6.108;2023-01-04T11:43:09;101050.22;;;11.45;100.00
73651;BME280;61944;52.538;6.108;2023-01-04T11:45:35;101041.72;;;11.38;100.00
73651;BME280;61944;52.538;6.108;2023-01-04T11:48:00;101029.56;;;11.27;100.00
73651;BME280;61944;52.538;6.108;2023-01-04T11:50:39;101038.34;;;11.25;100.00
73651;BME280;61944;52.538;6.108;2023-01-04T11:53:21;101050.75;;;11.24;100.00
73651;BME280;61944;52.538;6.108;2023-01-04T11:55:47;101065.13;;;11.23;100.00
73651;BME280;61944;52.538;6.108;2023-01-04T11:58:14;101028.31;;;11.24;100.00
73651;BME280;61944;52.538;6.108;2023-01-04T12:00:53;101031.44;;;11.19;100.00
73651;BME280;61944;52.538;6.108;2023-01-04T12:03:26;101034.31;;;11.23;100.00
73651;BME280;61944;52.538;6.108;2023-01-04T12:05:53;101040.72;;;11.23;100.00
73651;BME280;61944;52.538;6.108;2023-01-04T12:08:32;101022.22;;;11.18;100.00
73651;BME280;61944;52.538;6.108;2023-01-04T12:11:00;101017.06;;;11.21;100.00
73651;BME280;61944;52.538;6.108;2023-01-04T12:13:26;101018.69;;;11.22;100.00
73651;BME280;61944;52.538;6.108;2023-01-04T12:18:44;101012.97;;;11.14;100.00
73651;BME280;61944;52.538;6.108;2023-01-04T12:21:22;101017.06;;;11.21;100.00
73651;BME280;61944;52.538;6.108;2023-01-04T12:23:48;101013.84;;;11.18;100.00
73651;BME280;61944;52.538;6.108;2023-01-04T12:26:14;101012.97;;;11.14;100.00
73651;BME280;61944;52.538;6.108;2023-01-04T12:28:43;100999.31;;;11.09;100.00
73651;BME280;61944;52.538;6.108;2023-01-04T12:36:15;100997.88;;;11.23;100.00
73651;BME280;61944;52.538;6.108;2023-01-04T12:41:20;100998.25;;;11.21;100.00
73651;BME280;61944;52.538;6.108;2023-01-04T12:43:45;101001.16;;;11.28;100.00
73651;BME280;61944;52.538;6.108;2023-01-04T12:58:01;100996.94;;;11.42;100.00
73651;BME280;61944;52.538;6.108;2023-01-04T13:05:40;101000.09;;;11.40;100.00
73651;BME280;61944;52.538;6.108;2023-01-04T13:08:09;101011.03;;;11.49;100.00
73651;BME280;61944;52.538;6.108;2023-01-04T13:10:36;101011.13;;;11.56;100.00
73651;BME280;61944;52.538;6.108;2023-01-04T13:16:16;101007.09;;;11.53;100.00
73651;BME280;61944;52.538;6.108;2023-01-04T13:18:52;101014.25;;;11.51;100.00
73651;BME280;61944;52.538;6.108;2023-01-04T13:21:27;101013.44;;;11.50;100.00
73651;BME280;61944;52.538;6.108;2023-01-04T13:23:59;101006.69;;;11.55;100.00
73651;BME280;61944;52.538;6.108;2023-01-04T13:34:17;101005.16;;;11.57;100.00
73651;BME280;61944;52.538;6.108;2023-01-04T13:36:52;101003.94;;;11.58;100.00
73651;BME280;61944;52.538;6.108;2023-01-04T13:39:18;100997.47;;;11.54;100.00
73651;BME280;61944;52.538;6.108;2023-01-04T13:41:44;101005.16;;;11.57;100.00
73651;BME280;61944;52.538;6.108;2023-01-04T13:44:19;101018.38;;;11.60;100.00
73651;BME280;61944;52.538;6.108;2023-01-04T13:46:51;100983.38;;;11.47;100.00
73651;BME280;61944;52.538;6.108;2023-01-04T13:49:19;100990.59;;;11.48;100.00
73651;BME280;61944;52.538;6.108;2023-01-04T13:51:44;100994.25;;;11.52;100.00
73651;BME280;61944;52.538;6.108;2023-01-04T13:54:21;100998.28;;;11.55;100.00
73651;BME280;61944;52.538;6.108;2023-01-04T13:56:47;101007.09;;;11.53;100.00
73651;BME280;61944;52.538;6.108;2023-01-04T13:59:14;100999.91;;;11.56;100.00
73651;BME280;61944;52.538;6.108;2023-01-04T14:01:44;100993.50;;;11.55;100.00
73651;BME280;61944;52.538;6.108;2023-01-04T14:04:40;100987.91;;;11.55;100.00
73651;BME280;61944;52.538;6.108;2023-01-04T14:07:07;101010.31;;;11.55;100.00
73651;BME280;61944;52.538;6.108;2023-01-04T14:09:44;101008.69;;;11.54;100.00
73651;BME280;61944;52.538;6.108;2023-01-04T14:12:22;100999.00;;;11.48;100.00
73651;BME280;61944;52.538;6.108;2023-01-04T14:14:52;100991.81;;;11.51;100.00
73651;BME280;61944;52.538;6.108;2023-01-04T14:25:36;100983.81;;;11.49;100.00
73651;BME280;61944;52.538;6.108;2023-01-04T14:28:25;100994.59;;;11.47;100.00
73651;BME280;61944;52.538;6.108;2023-01-04T14:41:34;100966.16;;;11.45;100.00
73651;BME280;61944;52.538;6.108;2023-01-04T14:46:30;100976.53;;;11.45;100.00
73651;BME280;61944;52.538;6.108;2023-01-04T14:48:56;100978.09;;;11.42;100.00
73651;BME280;61944;52.538;6.108;2023-01-04T14:51:32;100998.94;;;11.45;100.00
73651;BME280;61944;52.538;6.108;2023-01-04T14:53:58;101006.13;;;11.42;100.00